Decoded Metar for KSDY (SIDNEY RICHLAND in MT, USA) (IATA:SDY) | Meteo·Mobile Aviation Weather
aviador You're here:

KSDY Decoded Metar

SIDNEY RICHLAND in MT, USA
Report Time2019-08-24 13:26:00
UTC Time2019-08-24 13:40:53
Flight Rules vfr VFR
Wind190° at 09 kt
W.Decomp.*RWY 19: 8.9 kt HW 1.4 kt LCW
RWY 11: 2.9 kt HW 8.5 kt RCW
Visibility9999 m
Phenomena:N/A
Clouds:Scattered 027 Hf
Scattered 033 Hf
Expected CloudBase > 400 ft AGL from Temp-Dew spread
CeilingNone
Temp19°C (ISA +8)
Dew Point18°C (94% RH)
AAT18.6°C
QNH1010 hPa
Density Alt3,297 ft
Elevation1,985 ft
Report Wrong Elevation
Raw Report
KSDY 241326Z AUTO 19009KT 10SM SCT027 SCT033 19/18 A2983 RMK AO2
LTG DSNT NE=

Extra information for KSDY:More info

Metar Taf Metar & Taf Last 4 Metars F.Rules Stats Wind Profile Meteogram Temp Stats Airport Information Weather charts Add Link Nearby VenuesMetar ALERT Operation Metar Decoded Social comments

AIRNAV info for KSDY